Logo AVAMET
Benvolgut visitant, si us plau, ingressa Recuperar contrasenya

Inforatge Castelló de la Plana Palau Festa

Dades diàries. Acumulats / Últims 30 dies disponibles

Data Temperatura (°C) Humitat rel. (%) Pressió rel. (hPa) Vent (km/h) Precipitació
Mínima Mitjana Màxima Amplitud
tèrmica
Mínima Mitjana Màxima Mínima Mitjana Màxima Predom. Mitjana Ràfega
màxima
Total
(mm)
Índex-n
Mínima Mitjana Màxima Mínima Mitjana Màxima n
0 a 1
P0 max
mm 5'
Dades mensuals acumulades fins l'últim dia disponible
08/2019 20,8 23,6 26,4 26,3 25,7 29,1 31,9 11,1 39 72 88 1.016 1.016 1.016   7,0 46,7 5,0
Dades anuals acumulades fins l'últim dia disponible
2019 2,3 14,4 26,4 18,0 12,7 21,9 35,9 33,6 17 64 94 1.016 1.016 1.016   7,6 79,6 81,6
Últims 30 dies disponibles
21-08-2019 20,8     23,7     25,7 4,9 66 75 86 1.016 1.016 1.016 S 6,2 27,8 1,4 0,20
20-08-2019 21,9     25,0     27,3 5,4 56 74 85 1.016 1.016 1.016 ENE 10,3 46,7 3,6
19-08-2019 25,4     26,8     29,1 3,7 63 77 83 1.016 1.016 1.016 NE 12,8 35,4 0,0
18-08-2019 24,9     26,9     29,7 4,8 71 78 84 1.016 1.016 1.016 ESE 5,4 29,6 0,0
17-08-2019 24,3     26,6     29,6 5,3 65 76 84 1.016 1.016 1.016 SSE 6,6 31,5 0,0
16-08-2019 22,8     26,0     28,2 5,4 64 73 80 1.016 1.016 1.016 S 5,7 31,5 0,0
15-08-2019 24,1     26,1     28,1 4,0 69 77 84 1.016 1.016 1.016 E 7,7 32,2 0,0
14-08-2019 20,8     25,1     28,6 7,8 40 69 80 1.016 1.016 1.016 S 8,3 32,2 0,0
13-08-2019 23,9     24,9     26,8 2,9 40 54 73 1.016 1.016 1.016 SSE 8,0 38,9 0,0
12-08-2019 24,9     26,7     30,2 5,3 41 61 84 1.016 1.016 1.016 E 10,3 40,7 0,0
11-08-2019 25,6     27,6     30,6 5,0 63 76 85 1.016 1.016 1.016 ESE 6,9 25,9 0,0
10-08-2019 26,4     28,0     30,8 4,4 53 78 87 1.016 1.016 1.016 E 8,8 42,6 0,0
09-08-2019 24,8     28,4     31,9 7,1 51 67 82 1.016 1.016 1.016 SE 5,7 25,9 0,0
08-08-2019 22,9     28,0     31,2 8,3 54 72 88 1.016 1.016 1.016 SE 6,1 24,1 0,0
07-08-2019 25,3     27,3     30,3 5,0 64 78 86 1.016 1.016 1.016 SE 5,7 29,6 0,0
06-08-2019 22,7     26,8     29,6 6,9 69 79 85 1.016 1.016 1.016 SSE 4,6 24,1 0,0
05-08-2019 22,7     25,3     28,6 5,9 65 73 78 1.016 1.016 1.016 S 3,4 19,3 0,0
04-08-2019 23,0     26,1     28,9 5,9 60 75 81 1.016 1.016 1.016 SE 5,1 27,8 0,0
03-08-2019 22,5     26,2     29,1 6,6 57 72 81 1.016 1.016 1.016 SSE 5,6 29,6 0,0
02-08-2019 22,9     26,2     29,1 6,2 39 64 76 1.016 1.016 1.016 E 5,8 25,9 0,0
01-08-2019 22,8     25,4     27,7 4,9 62 72 80 1.016 1.016 1.016 ESE 8,2 32,2 0,0
31-07-2019 24,4     25,7     27,1 2,7 60 71 76 1.016 1.016 1.016 ENE 10,8 32,2 0,0
30-07-2019 24,4     26,4     28,9 4,5 54 69 82 1.016 1.016 1.016 ENE 11,5 32,2 0,0
29-07-2019 21,8     25,7     28,9 7,1 45 65 77 1.016 1.016 1.016 SSE 6,8 27,8 0,0
28-07-2019 21,6     25,1     27,5 5,9 36 51 69 1.016 1.016 1.016 SSO 9,5 32,2 0,0
27-07-2019 23,0     26,2     28,9 5,9 47 70 82 1.016 1.016 1.016 SE 9,2 35,4 0,0
26-07-2019 24,3     26,6     28,9 4,6 66 73 79 1.016 1.016 1.016 SE 5,6 29,6 0,0
25-07-2019 23,7     27,7     30,6 6,9 49 66 79 1.016 1.016 1.016 SE 5,0 25,9 0,0
24-07-2019 24,3     28,7     32,6 8,3 35 55 76 1.016 1.016 1.016 SSE 4,9 22,6 0,0
23-07-2019 23,5     28,5     33,2 9,7 37 49 67 1.016 1.016 1.016 S 6,8 27,8 0,0
Últims 13 mesos disponibles
07/2019 21,6 23,1 25,3 26,5 27,1 29,4 33,2 11,6 49 67 78 1.016 1.016 1.016 SE 7,1 51,9 8,6
06/2019 12,8 18,9 23,1 22,4 20,7 25,8 35,9 23,1 41 64 79 1.016 1.016 1.016 S 8,1 59,6 0,0
05/2019 10,4 14,6 17,7 18,0 17,3 21,5 28,2 17,8 50 67 81 1.016 1.016 1.016 SE 7,8 53,7 13,0
04/2019 7,8 12,1 14,5 15,5 15,5 19,3 26,4 18,6 44 63 85 1.016 1.016 1.016 SSO 10,6 66,7 44,0
03/2019 7,7 10,4 13,2 14,5 13,4 18,8 25,2 17,5 41 59 78 1.016 1.016 1.016 S 7,0 53,7 10,4
02/2019 2,3 7,9 11,8 12,3 12,9 16,9 22,9 20,6 28 65 79 1.016 1.016 1.016 SSO 6,3 74,1 0,0
01/2019 3,7 7,2 10,4 11,6 12,7 16,5 22,5 18,8 37 57 78 1.016 1.016 1.016 SO 7,0 79,6 0,6
12/2018 6,6 10,0 12,7 13,6 14,1 18,0 24,2 17,6 51 69 83 1.016 1.016 1.016 SSO 4,1 68,5 7,2
11/2018 7,8 11,7 16,8 15,0 15,1 18,9 22,0 14,2 52 71 86 1.007 1.016 1.023 SO 6,3 48,3 89,4
10/2018 7,9 15,5 19,8 19,0 14,9 22,6 28,2 20,3 38 68 87 1.001 1.021 1.026 S 6,6 63,0 136,8
09/2018 18,0 21,2 23,8 24,4 24,6 27,4 30,7 12,7 52 73 82 1.014 1.022 1.025 6,4 50,0 66,2
08/2018 20,6 23,5 27,6 26,7 26,5 29,5 33,3 12,7 56 68 79 1.014 1.019 1.024 7,0 72,4 49,0
07/2018 19,8 23,2 24,8 26,3 26,1 29,1 34,3 14,5 53 70 77 1.012 1.017 1.022 7,2 45,0 4,8
Tots els anys disponibles
Temperatura (°C)
Humitat relativa (%)
Velocitat del vent i ràfega màxima (km/h)
Direcció del vent (°)
Pressió (hPa)
Precipitació (mm)
Nota sobre les dades: s'avisa a l'usuari de la provisionalitat i no oficialitat d'aquestes dades
Logo AVAMET blanc
Web allotjada a Sollutia
Llicència de Creative CommonsLa web d'AVAMET i els seus continguts estan subjectes a una llicència de
Reconeixement - No Comercial - Compartir igual
Properes estacions: Altea - Club Nàutic d'Altea (Soci), Ares del Maestrat (Ajuntament Soci),      - - - - -      Últimes estacions: Catadau - Urb. Lloma Molina (Inforatge), Ontinyent - El Pilar (Soci) - - -